Latest Weather Observations for Hervey Bay

IDQ60801

Issued at 12:32 pm EST Wednesday 10 February 2016 (issued every 30 minutes, with the page automatically refreshed every 10 minutes)

About weather observations | Map of weather stations | Latest weather observations for QLD | Other Formats
Station Details ID: 040405 Name: HERVEY BAY AIRPORT Lat: -25.32 Lon: 152.88 Height: 12.98 m
Data from the previous 72 hours. | See also: Recent months at Hervey Bay
Date/Time
EST
Temp
°C
App
Temp
°C
Dew
Point
Rel
Hum
%
Delta-T
°C
Wind Press
QNH
hPa
Press
MSL
hPa
Rain
since 9 am
mm
Dir
 
Spd
km/h
Gust
km/h
Spd
kts
Gust
kts
10/12:30pm 27.5 26.8 20.3 65 4.7 SSE 24 43 13 23 1011.0 1010.9 3.2
10/12:00pm 27.2 26.2 20.5 67 4.4 SSE 26 39 14 21 1011.1 1011.0 3.2
10/11:30am 27.2 27.0 21.2 69 4.0 SSE 24 35 13 19 1011.3 1011.2 3.2
10/11:00am 26.8 26.6 19.7 65 4.6 SSE 20 35 11 19 1011.4 1011.3 3.0
10/10:30am 25.5 26.3 20.7 75 3.1 SSE 17 30 9 16 1011.7 1011.6 3.0
10/10:00am 24.3 27.0 22.2 88 1.4 SE 11 15 6 8 1011.7 1011.6 1.8
10/09:55am 24.2 27.3 22.1 88 1.4 SSE 9 15 5 8 1011.7 1011.6 1.8
10/09:37am 23.7 25.9 21.2 86 1.6 S 11 17 6 9 1011.9 1011.8 1.4
10/09:30am 24.0 26.5 21.1 84 1.9 S 9 15 5 8 1011.8 1011.7 0.2
10/09:00am 24.3 25.5 20.6 80 2.4 S 15 24 8 13 1012.0 1011.9 0.0
10/08:30am 24.3 24.9 20.2 78 2.7 SSW 17 24 9 13 1011.9 1011.8 0.0
10/08:00am 24.2 24.5 19.7 76 2.9 SSW 17 24 9 13 1011.8 1011.7 0.0
10/07:30am 23.6 24.8 19.9 80 2.4 SSW 13 20 7 11 1011.5 1011.4 0.0
10/07:00am 22.4 22.9 19.2 82 2.0 SSW 15 22 8 12 1011.3 1011.2 0.0
10/06:30am 21.4 22.2 19.0 86 1.5 SSW 13 20 7 11 1011.0 1010.9 0.0
10/06:00am 21.1 21.9 19.0 88 1.3 SSW 13 19 7 10 1010.8 1010.7 0.0
10/05:30am 20.6 21.2 18.7 89 1.2 SSW 13 20 7 11 1010.6 1010.5 0.0
10/05:00am 20.7 21.4 18.8 89 1.2 SW 13 19 7 10 1010.6 1010.5 0.0
10/04:30am 20.7 21.7 18.6 88 1.3 SW 11 13 6 7 1010.4 1010.3 0.0
10/04:00am 20.9 21.9 18.7 87 1.4 SW 11 17 6 9 1010.4 1010.3 0.0
10/03:30am 21.1 21.7 18.5 85 1.6 SSW 13 15 7 8 1010.5 1010.4 0.0
10/03:00am 21.9 22.5 18.5 81 2.1 SSW 13 19 7 10 1010.5 1010.4 0.0
10/02:30am 23.8 23.9 18.4 72 3.4 SSE 15 24 8 13 1010.4 1010.3 0.0
10/02:00am 23.8 23.8 18.2 71 3.5 SE 15 24 8 13 1010.7 1010.6 0.0
10/01:30am 23.9 24.2 17.9 69 3.8 SE 13 24 7 13 1010.9 1010.8 0.0
10/01:00am 23.9 23.7 18.5 72 3.4 SSE 17 28 9 15 1011.3 1011.2 0.0
10/12:30am 24.4 24.3 18.8 71 3.6 SE 17 28 9 15 1011.4 1011.3 0.0
10/12:00am 24.2 23.6 18.4 70 3.7 SE 19 30 10 16 1011.9 1011.8 0.0
 
Date/Time
EST
Temp
°C
App
Temp
°C
Dew
Point
Rel
Hum
%
Delta-T
°C
Wind Press
QNH
hPa
Press
MSL
hPa
Rain
since 9 am
mm
Dir
 
Spd
km/h
Gust
km/h
Spd
kts
Gust
kts
09/11:30pm 24.3 23.6 18.7 71 3.6 SE 20 35 11 19 1012.4 1012.3 0.0
09/11:00pm 24.3 23.2 18.7 71 3.6 SSE 22 37 12 20 1013.0 1012.9 0.0
09/10:30pm 24.3 23.6 18.7 71 3.6 SSE 20 35 11 19 1013.2 1013.1 0.0
09/10:00pm 24.3 23.7 18.9 72 3.4 SSE 20 41 11 22 1013.5 1013.4 0.0
09/09:30pm 24.3 23.9 18.9 72 3.4 SSE 19 30 10 16 1013.9 1013.8 0.0
09/09:00pm 24.7 24.4 19.1 71 3.6 SSE 19 35 10 19 1014.0 1013.9 0.0
09/08:30pm 24.6 24.0 18.5 69 3.9 SSE 19 32 10 17 1014.0 1013.9 0.0
09/08:00pm 24.7 24.0 18.2 67 4.1 SSE 19 32 10 17 1013.7 1013.6 0.0
09/07:30pm 24.8 24.3 18.7 69 3.9 SSE 19 32 10 17 1013.6 1013.5 0.0
09/07:00pm 24.7 24.0 18.6 69 3.9 SSE 20 35 11 19 1013.3 1013.2 0.0
09/06:30pm 25.0 24.1 18.2 66 4.3 SSE 20 37 11 20 1013.2 1013.1 0.0
09/06:00pm 25.6 23.6 17.5 61 5.1 SSE 24 39 13 21 1012.9 1012.8 0.0
09/05:30pm 25.9 23.1 17.3 59 5.4 SSE 28 46 15 25 1012.6 1012.5 0.0
09/05:29pm 26.0 23.2 17.4 59 5.4 SSE 28 46 15 25 1012.6 1012.5 0.0
09/05:00pm 26.8 24.6 17.0 55 6.1 SSE 24 48 13 26 1012.4 1012.3 0.0
09/04:38pm 26.9 24.0 17.1 55 6.1 SSE 28 50 15 27 1012.1 1012.0 0.0
09/04:30pm 27.3 25.1 17.8 56 6.0 SSE 26 46 14 25 1012.1 1012.0 0.0
09/04:10pm 27.6 25.1 18.0 55 6.1 SSE 28 46 15 25 1012.2 1012.1 0.0
09/04:00pm 27.6 25.3 17.7 54 6.3 SE 26 41 14 22 1012.3 1012.2 0.0
09/03:30pm 27.8 25.1 17.6 53 6.4 SSE 28 46 15 25 1012.3 1012.2 0.0
09/03:10pm 27.9 25.1 17.4 52 6.6 SSE 28 46 15 25 1012.4 1012.3 0.0
09/03:00pm 28.2 25.9 17.7 53 6.6 SE 26 39 14 21 1012.4 1012.3 0.0
09/02:30pm 28.0 24.9 16.6 50 7.1 SSE 28 48 15 26 1012.6 1012.5 0.0
09/02:00pm 27.6 24.1 17.5 54 6.4 SSE 32 50 17 27 1012.7 1012.6 0.0
09/01:55pm 28.4 25.7 17.6 52 6.8 SE 28 50 15 27 1012.7 1012.6 0.0
09/01:30pm 28.5 25.9 17.7 52 6.8 SSE 28 39 15 21 1012.8 1012.7 0.0
09/01:08pm 28.4 25.5 17.0 50 7.1 SE 28 46 15 25 1013.1 1013.0 0.0
09/01:00pm 28.5 26.5 17.4 51 7.0 SE 24 43 13 23 1013.2 1013.1 0.0
09/12:30pm 28.3 26.2 18.1 54 6.5 SE 26 43 14 23 1013.2 1013.1 0.0
09/12:19pm 28.1 25.4 17.6 53 6.6 SSE 28 50 15 27 1013.3 1013.2 0.0
09/12:00pm 27.2 25.5 18.2 58 5.7 SSE 24 35 13 19 1013.4 1013.3 0.0
09/11:37am 28.3 26.3 19.2 57 5.9 SSE 28 46 15 25 1013.4 1013.3 0.0
09/11:30am 27.4 24.4 17.8 55 6.1 SSE 30 46 16 25 1013.6 1013.5 0.0
09/11:00am 27.7 25.4 18.4 57 5.9 SSE 28 54 15 29 1013.6 1013.5 0.0
09/10:59am 28.0 25.8 18.7 57 6.0 SSE 28 50 15 27 1013.5 1013.4 0.0
09/10:30am 28.6 27.0 18.4 54 6.5 SSE 24 41 13 22 1013.5 1013.4 0.0
09/10:00am 27.4 25.6 17.0 53 6.5 SE 22 35 12 19 1013.8 1013.7 0.0
09/09:30am 27.4 25.7 18.1 57 5.9 SSE 24 39 13 21 1013.8 1013.7 0.0
09/09:00am 27.8 26.8 17.9 54 6.3 SSE 20 33 11 18 1013.8 1013.7 0.0
09/08:30am 27.2 26.4 17.9 56 5.9 SSE 19 33 10 18 1013.6 1013.5 0.0
09/08:00am 26.5 25.7 18.1 60 5.3 SSE 19 39 10 21 1013.5 1013.4 0.0
09/07:30am 25.2 26.1 20.0 73 3.4 S 15 20 8 11 1013.5 1013.4 0.0
09/07:00am 23.4 24.4 19.5 79 2.5 SSW 13 20 7 11 1013.4 1013.3 0.0
09/06:30am 22.1 23.1 19.5 85 1.7 SSW 13 20 7 11 1013.2 1013.1 0.0
09/06:00am 21.8 22.9 19.7 88 1.3 SSW 13 19 7 10 1013.0 1012.9 0.0
09/05:30am 21.6 22.7 19.7 89 1.2 SSW 13 17 7 9 1012.6 1012.5 0.0
09/05:00am 21.8 23.0 19.9 89 1.2 SSW 13 19 7 10 1012.2 1012.1 0.0
09/04:30am 22.4 24.2 20.3 88 1.4 SW 11 15 6 8 1011.9 1011.8 0.0
09/04:00am 22.8 24.1 19.4 81 2.2 S 11 24 6 13 1011.8 1011.7 0.0
09/03:30am 23.1 23.9 19.9 82 2.1 SSE 15 28 8 15 1011.8 1011.7 0.0
09/03:00am 23.1 22.6 18.6 76 2.8 SSE 19 32 10 17 1011.9 1011.8 0.0
09/02:30am 24.3 25.1 19.8 76 2.9 SE 15 24 8 13 1012.0 1011.9 0.0
09/02:00am 24.3 24.5 19.4 74 3.1 SSE 17 26 9 14 1012.2 1012.1 0.0
09/01:30am 24.5 24.3 19.3 73 3.3 SSE 19 30 10 16 1012.3 1012.2 0.0
09/01:00am 24.4 24.7 19.5 74 3.1 SSE 17 24 9 13 1012.4 1012.3 0.0
09/12:30am 24.6 25.2 19.4 73 3.3 SSE 15 24 8 13 1012.7 1012.6 0.0
09/12:00am 24.4 25.4 19.5 74 3.1 SSE 13 30 7 16 1013.1 1013.0 0.0
 
Date/Time
EST
Temp
°C
App
Temp
°C
Dew
Point
Rel
Hum
%
Delta-T
°C
Wind Press
QNH
hPa
Press
MSL
hPa
Rain
since 9 am
mm
Dir
 
Spd
km/h
Gust
km/h
Spd
kts
Gust
kts
08/11:30pm 24.5 25.4 19.3 73 3.3 SSE 13 19 7 10 1013.5 1013.4 0.0
08/11:00pm 24.6 25.1 19.2 72 3.5 SE 15 26 8 14 1013.6 1013.5 0.0
08/10:30pm 24.6 24.9 18.8 70 3.7 SE 15 26 8 14 1013.9 1013.8 0.0
08/10:00pm 24.6 24.8 18.5 69 3.9 SE 15 28 8 15 1013.9 1013.8 0.0
08/09:30pm 24.6 24.3 18.3 68 4.0 SE 17 28 9 15 1013.8 1013.7 0.0
08/09:00pm 24.7 24.5 18.6 69 3.9 SSE 17 28 9 15 1013.7 1013.6 0.0
08/08:30pm 24.7 25.1 18.9 70 3.7 SSE 15 26 8 14 1013.7 1013.6 0.0
08/08:00pm 24.6 25.4 19.0 71 3.6 SE 13 20 7 11 1013.5 1013.4 0.0
08/07:30pm 24.8 24.8 19.0 70 3.7 SE 17 28 9 15 1013.2 1013.1 0.0
08/07:00pm 24.9 24.2 18.6 68 4.0 SE 20 30 11 16 1012.9 1012.8 0.0
08/06:30pm 24.9 24.4 18.6 68 4.0 SSE 19 33 10 18 1012.7 1012.6 0.0
08/06:00pm 25.6 24.7 17.8 62 4.9 SE 19 30 10 16 1012.2 1012.1 0.0
08/05:30pm 26.0 24.8 18.4 63 4.8 SSE 22 37 12 20 1011.8 1011.7 0.0
08/05:00pm 26.6 25.1 18.5 61 5.2 SE 24 39 13 21 1011.5 1011.4 0.0
08/04:30pm 26.9 26.0 19.0 62 5.1 SSE 22 35 12 19 1011.5 1011.4 0.0
08/04:00pm 26.8 26.1 18.6 60 5.2 SE 20 33 11 18 1011.5 1011.4 0.0
08/03:30pm 28.0 26.8 17.5 52 6.6 SE 20 37 11 20 1011.6 1011.5 0.0
08/03:00pm 28.0 26.4 17.5 52 6.6 SE 22 39 12 21 1011.8 1011.7 0.0
08/02:30pm 28.2 26.7 17.7 53 6.6 SE 22 35 12 19 1012.2 1012.1 0.0
08/02:00pm 27.7 25.5 17.8 54 6.3 SE 26 41 14 22 1012.5 1012.4 0.0
08/01:30pm 28.4 27.3 20.2 61 5.4 SE 26 41 14 22 1012.7 1012.6 0.0
08/01:00pm 28.1 26.9 19.3 58 5.7 SSE 24 37 13 20 1012.9 1012.8 0.0
08/12:30pm 28.8 27.7 18.6 54 6.6 SE 22 33 12 18 1013.1 1013.0 0.0
08/12:00pm 28.4 27.0 17.0 50 7.1 SE 20 35 11 19 1013.4 1013.3 0.0
08/11:30am 28.3 26.6 17.2 51 7.0 S 22 32 12 17 1013.6 1013.5 0.0
08/11:00am 27.9 26.0 17.7 53 6.4 SSE 24 41 13 22 1013.8 1013.7 0.0
08/10:30am 27.6 26.0 17.5 54 6.4 SSE 22 32 12 17 1014.0 1013.9 0.0
08/10:00am 26.8 25.1 18.1 59 5.5 SSE 24 37 13 20 1014.1 1014.0 0.0
08/09:30am 26.0 25.7 19.2 66 4.4 SSE 19 30 10 16 1013.9 1013.8 0.0
08/09:00am 26.0 25.2 18.4 63 4.8 S 20 32 11 17 1013.9 1013.8 0.2
08/08:30am 26.0 26.1 19.2 66 4.4 S 17 26 9 14 1014.0 1013.9 0.2
08/08:00am 24.9 24.4 19.1 70 3.7 S 20 32 11 17 1013.9 1013.8 0.2
08/07:30am 24.3 24.5 19.4 74 3.1 S 17 24 9 13 1014.0 1013.9 0.2
08/07:00am 23.4 23.4 18.9 76 2.9 SSW 17 24 9 13 1013.7 1013.6 0.2
08/06:30am 22.6 23.5 19.2 81 2.2 SSW 13 19 7 10 1013.6 1013.5 0.2
08/06:00am 22.1 23.1 19.5 85 1.7 SSW 13 17 7 9 1013.1 1013.0 0.2
08/05:30am 21.7 23.0 19.3 86 1.5 SSW 11 15 6 8 1012.7 1012.6 0.2
08/05:00am 22.3 22.9 18.7 80 2.3 SSW 13 20 7 11 1012.5 1012.4 0.2
08/04:30am 23.7 24.3 18.6 73 3.2 SSE 13 17 7 9 1012.3 1012.2 0.2
08/04:00am 24.1 24.5 19.0 73 3.2 SSE 15 20 8 11 1012.4 1012.3 0.2
08/03:30am 23.8 24.6 19.1 75 3.0 SE 13 20 7 11 1012.4 1012.3 0.2
08/03:00am 24.0 24.8 19.1 74 3.1 SE 13 24 7 13 1012.5 1012.4 0.2
08/02:30am 24.0 24.8 19.1 74 3.1 SE 13 20 7 11 1012.5 1012.4 0.2
08/02:00am 24.3 25.3 19.4 74 3.1 SSE 13 22 7 12 1012.6 1012.5 0.2
08/01:30am 24.5 25.2 19.6 74 3.2 SSE 15 28 8 15 1012.5 1012.4 0.2
08/01:00am 24.5 25.7 19.8 75 3.0 SSE 13 20 7 11 1012.9 1012.8 0.2
08/12:30am 24.4 25.7 20.1 77 2.8 SSE 13 19 7 10 1013.2 1013.1 0.2
08/12:00am 24.6 25.8 19.9 75 3.0 SE 13 24 7 13 1013.5 1013.4 0.2
 
Date/Time
EST
Temp
°C
App
Temp
°C
Dew
Point
Rel
Hum
%
Delta-T
°C
Wind Press
QNH
hPa
Press
MSL
hPa
Rain
since 9 am
mm
Dir
 
Spd
km/h
Gust
km/h
Spd
kts
Gust
kts
07/11:30pm 25.0 25.0 19.8 73 3.4 SE 19 30 10 16 1013.6 1013.5 0.2
07/11:00pm 24.8 24.6 19.8 74 3.2 SE 20 32 11 17 1013.6 1013.5 0.2
07/10:30pm 25.0 25.5 20.0 74 3.2 SSE 17 28 9 15 1013.7 1013.6 0.2
07/10:00pm 24.7 25.5 20.6 78 2.7 SE 17 26 9 14 1013.9 1013.8 0.2
07/09:30pm 24.8 25.5 20.5 77 2.8 SSE 17 26 9 14 1013.7 1013.6 0.2
07/09:00pm 24.0 25.3 20.9 83 2.0 S 15 20 8 11 1013.5 1013.4 0.2
07/08:30pm 23.9 24.8 20.8 83 2.0 S 17 24 9 13 1013.0 1012.9 0.2
07/08:00pm 24.2 25.3 21.3 84 1.9 SSE 17 24 9 13 1012.9 1012.8 0.2
07/07:30pm 24.2 24.7 21.1 83 2.0 SSE 20 30 11 16 1012.7 1012.6 0.2
07/07:00pm 24.4 24.8 20.9 81 2.3 SSE 20 30 11 16 1012.4 1012.3 0.2
07/06:30pm 24.6 24.1 20.7 79 2.6 SSE 24 41 13 22 1012.1 1012.0 0.2
07/06:00pm 25.2 25.7 21.1 78 2.7 SSE 20 32 11 17 1011.8 1011.7 0.2
07/05:30pm 25.6 25.1 20.8 75 3.2 SSE 24 37 13 20 1011.2 1011.1 0.2
07/05:00pm 26.0 25.3 21.0 74 3.3 SSE 26 39 14 21 1010.8 1010.7 0.2
07/04:30pm 25.5 25.5 21.0 76 3.0 SSE 22 35 12 19 1010.6 1010.5 0.2
07/04:24pm 25.8 24.6 20.8 74 3.3 SE 28 48 15 26 1010.6 1010.5 0.2
07/04:00pm 26.3 26.8 21.1 73 3.4 SE 20 30 11 16 1010.4 1010.3 0.2
07/03:30pm 27.0 27.1 20.3 66 4.4 SE 20 32 11 17 1010.3 1010.2 0.2
07/03:00pm 27.8 28.0 21.3 67 4.3 SSE 22 39 12 21 1010.3 1010.2 0.2
07/02:30pm 27.5 26.8 20.3 65 4.7 SE 24 39 13 21 1010.4 1010.3 0.2
07/02:00pm 28.8 28.6 22.1 67 4.5 SE 26 39 14 21 1010.5 1010.4 0.2
07/01:30pm 26.7 27.5 21.7 74 3.3 SSE 20 33 11 18 1011.0 1010.9 0.2
07/01:00pm 25.8 26.1 21.5 77 2.9 SSE 22 37 12 20 1011.4 1011.3 0.2
07/12:50pm 25.7 24.5 20.9 75 3.2 SE 28 46 15 25 1011.4 1011.3 0.2

Other Formats:

Comma delimited format used in spreadsheet applications
http://www.bom.gov.au/fwo/IDQ60801/IDQ60801.95565.axf

JavaScript Object Notation format (JSON) in row-major order
http://www.bom.gov.au/fwo/IDQ60801/IDQ60801.95565.json